Astra 1 — T8A2557 — position and weather

sailwx.info

Track history (hours):
 
Tides and Currents Weather Stations Pressure Air Temp Water Temp Dewpoint Dewpoint Depression Visibility Wind Speed Wind Dir Waves Ship Positions

Astra 1

Last reported at 2018-Jun-14 01:31 UTC. Time now 2018-Jun-19 04:30 UTC.
Position N 39°56' E 025°51'.

Length 107 m; draft 3.4 m.

Type: Cargo ship. MMSI: 511421000.

Date/timePositionNaut miles runAvg speedWind from/ knotsBaromVisibWave heightAir tempDewpointWater temp
2018-Jun-14 01:31N 39°56' E 025°51'0 8.9
2018-Jun-14 01:29N 39°56' E 025°51'163 7.1
2018-Jun-13 02:26N 41°07' E 029°04'4 8.1
2018-Jun-13 01:56N 41°11' E 029°05'4 8.9
2018-Jun-13 01:28N 41°14' E 029°08'4 8.2
2018-Jun-13 01:00N 41°18' E 029°10'4 7.1
2018-Jun-13 00:30N 41°21' E 029°13'4 8.3
2018-Jun-13 00:00N 41°21' E 029°18'  
2018-Jun-10 18:52N 45°19' E 036°33'3 7.3
2018-Jun-10 18:30N 45°20' E 036°37'3 6.0
2018-Jun-10 18:00N 45°22' E 036°40'2 4.7
2018-Jun-10 17:30N 45°23' E 036°42'0 0.0
2018-Jun-10 17:00N 45°23' E 036°42'0 0.0
2018-Jun-10 16:30N 45°23' E 036°42'2 4.6
2018-Jun-10 16:00N 45°26' E 036°42'4 7.7
2018-Jun-10 15:30N 45°29' E 036°44'4 8.0
2018-Jun-10 14:59N 45°33' E 036°47'5 8.1
2018-Jun-10 14:21N 45°38' E 036°50'9 8.1
2018-Jun-10 13:18N 45°46' E 036°54'  
2018-Jun-05 11:28N 45°33' E 036°48'4 8.8
2018-Jun-05 11:00N 45°30' E 036°45'4 8.7
2018-Jun-05 10:30N 45°26' E 036°42'4 8.8
2018-Jun-05 10:00N 45°22' E 036°40'4 7.2
2018-Jun-05 09:30N 45°20' E 036°36'4 8.0
2018-Jun-05 09:00N 45°19' E 036°31'3 5.8
2018-Jun-05 08:30N 45°16' E 036°29'3 4.5
2018-Jun-05 07:55N 45°14' E 036°30'0 0.1
2018-Jun-05 07:28N 45°14' E 036°30'0 0.0
2018-Jun-05 06:58N 45°14' E 036°30'0 0.0
2018-Jun-05 06:28N 45°14' E 036°30'0 0.0
2018-Jun-05 05:58N 45°14' E 036°30'0 0.0
2018-Jun-05 05:28N 45°14' E 036°30'0 0.0
2018-Jun-05 04:58N 45°14' E 036°30'0 0.0
2018-Jun-05 04:28N 45°14' E 036°30'0 0.0
2018-Jun-05 03:52N 45°14' E 036°30'0 0.0
2018-Jun-05 03:28N 45°14' E 036°30'0 0.0
2018-Jun-05 02:58N 45°14' E 036°30'0 0.0
2018-Jun-05 02:28N 45°14' E 036°30'0 0.0
2018-Jun-05 01:58N 45°14' E 036°30'0 0.0
2018-Jun-05 01:28N 45°14' E 036°30'0 0.4
2018-Jun-05 01:00N 45°14' E 036°30'2 4.9
2018-Jun-05 00:31N 45°12' E 036°29'5 7.1
2018-Jun-04 23:50N 45°07' E 036°30'3 9.1
2018-Jun-04 23:31N 45°04' E 036°30'5 9.0
2018-Jun-04 22:59N 44°59' E 036°31'4 9.0
2018-Jun-04 22:30N 44°55' E 036°31'4 9.1
2018-Jun-04 22:00N 44°51' E 036°32'5 8.7
2018-Jun-04 21:27N 44°47' E 036°28'15 8.6
2018-Jun-04 19:41N 44°42' E 036°07'2 8.8
2018-Jun-04 19:30N 44°41' E 036°05'5 8.8
2018-Jun-04 18:54N 44°40' E 035°58'21 8.9
2018-Jun-04 16:35N 44°35' E 035°30'2 8.8
2018-Jun-04 16:23N 44°34' E 035°27'3 9.0
2018-Jun-04 16:01N 44°33' E 035°23'  
Track history (hours):
 
Tides and Currents Weather Stations Pressure Air Temp Water Temp Dewpoint Dewpoint Depression Visibility Wind Speed Wind Dir Waves Ship Positions

Astra 1

Last reported at 2018-Jun-14 01:31 UTC. Time now 2018-Jun-19 04:30 UTC.
Position N 39°56' E 025°51'.

Length 107 m; draft 3.4 m.

Type: Cargo ship. MMSI: 511421000.

Date/timePositionNaut miles runAvg speedWind from/ knotsBaromVisibWave heightAir tempDewpointWater temp
2018-Jun-14 01:31N 39°56' E 025°51'0 8.9
2018-Jun-14 01:29N 39°56' E 025°51'163 7.1
2018-Jun-13 02:26N 41°07' E 029°04'4 8.1
2018-Jun-13 01:56N 41°11' E 029°05'4 8.9
2018-Jun-13 01:28N 41°14' E 029°08'4 8.2
2018-Jun-13 01:00N 41°18' E 029°10'4 7.1
2018-Jun-13 00:30N 41°21' E 029°13'4 8.3
2018-Jun-13 00:00N 41°21' E 029°18'  
2018-Jun-10 18:52N 45°19' E 036°33'3 7.3
2018-Jun-10 18:30N 45°20' E 036°37'3 6.0
2018-Jun-10 18:00N 45°22' E 036°40'2 4.7
2018-Jun-10 17:30N 45°23' E 036°42'0 0.0
2018-Jun-10 17:00N 45°23' E 036°42'0 0.0
2018-Jun-10 16:30N 45°23' E 036°42'2 4.6
2018-Jun-10 16:00N 45°26' E 036°42'4 7.7
2018-Jun-10 15:30N 45°29' E 036°44'4 8.0
2018-Jun-10 14:59N 45°33' E 036°47'5 8.1
2018-Jun-10 14:21N 45°38' E 036°50'9 8.1
2018-Jun-10 13:18N 45°46' E 036°54'  
2018-Jun-05 11:28N 45°33' E 036°48'4 8.8
2018-Jun-05 11:00N 45°30' E 036°45'4 8.7
2018-Jun-05 10:30N 45°26' E 036°42'4 8.8
2018-Jun-05 10:00N 45°22' E 036°40'4 7.2
2018-Jun-05 09:30N 45°20' E 036°36'4 8.0
2018-Jun-05 09:00N 45°19' E 036°31'3 5.8
2018-Jun-05 08:30N 45°16' E 036°29'3 4.5
2018-Jun-05 07:55N 45°14' E 036°30'0 0.1
2018-Jun-05 07:28N 45°14' E 036°30'0 0.0
2018-Jun-05 06:58N 45°14' E 036°30'0 0.0
2018-Jun-05 06:28N 45°14' E 036°30'0 0.0
2018-Jun-05 05:58N 45°14' E 036°30'0 0.0
2018-Jun-05 05:28N 45°14' E 036°30'0 0.0
2018-Jun-05 04:58N 45°14' E 036°30'0 0.0
2018-Jun-05 04:28N 45°14' E 036°30'0 0.0
2018-Jun-05 03:52N 45°14' E 036°30'0 0.0
2018-Jun-05 03:28N 45°14' E 036°30'0 0.0
2018-Jun-05 02:58N 45°14' E 036°30'0 0.0
2018-Jun-05 02:28N 45°14' E 036°30'0 0.0
2018-Jun-05 01:58N 45°14' E 036°30'0 0.0
2018-Jun-05 01:28N 45°14' E 036°30'0 0.4
2018-Jun-05 01:00N 45°14' E 036°30'2 4.9
2018-Jun-05 00:31N 45°12' E 036°29'5 7.1
2018-Jun-04 23:50N 45°07' E 036°30'3 9.1
2018-Jun-04 23:31N 45°04' E 036°30'5 9.0
2018-Jun-04 22:59N 44°59' E 036°31'4 9.0
2018-Jun-04 22:30N 44°55' E 036°31'4 9.1
2018-Jun-04 22:00N 44°51' E 036°32'5 8.7
2018-Jun-04 21:27N 44°47' E 036°28'15 8.6
2018-Jun-04 19:41N 44°42' E 036°07'2 8.8
2018-Jun-04 19:30N 44°41' E 036°05'5 8.8
2018-Jun-04 18:54N 44°40' E 035°58'21 8.9
2018-Jun-04 16:35N 44°35' E 035°30'2 8.8
2018-Jun-04 16:23N 44°34' E 035°27'3 9.0
2018-Jun-04 16:01N 44°33' E 035°23'  

Dump ship's entire track history